Dades meteomassalio
Diari Summary for Gener 11, 2018 Units:  Metric    English   Both
« Previous Day
Next Day »
Diari Semanal Mensual Anual Personalitzat
  Maxima: Minima: Mijana:
Temperatura: -17.8 °C -17.4 °C -14.1 °C
Rosada: -17.8 °C -19.8 °C -17.1 °C
Humitat: Humidity % 55 % 69 %
Velocitat del vent: 0 km/h 0 km/h 42.8 km/h
Racha vent: 0 km/h - -
Vent:- - NW
Pressio: 0 hPa 34510.1 hPa -
Pluja: 0 mm    
Historical Graphs
 
 
Tabular Data for Gener 11, 2018
Time Temperature Dew Point Pressure Wind Wind Speed Wind Gust Humidity Rainfall Rate (Hourly) solar Conditions
-17.8 °C -17.8 °C 0 hPa Calm     Humidity % 0 mm SolarRadiationWatts/m^2 W/m2 Conditions
00:03 -12.8 °C -16.3 °C 34510.1 hPa NW 50.7 km/h 50.7 km/h 65 % 0 mm 0.0 W/m2 RA
00:17 -13.2 °C -16.6 °C 34520.3 hPa NNW 47.6 km/h 47.6 km/h 65 % 0 mm 0.0 W/m2 CLR
00:23 -13.2 °C -16.6 °C 34520.3 hPa NW 62.6 km/h 62.6 km/h 65 % 0 mm 0.0 W/m2 CLR
00:28 -13.2 °C -16.7 °C 34520.3 hPa West 62.6 km/h 62.6 km/h 64 % 0 mm 0.0 W/m2 CLR
00:34 -13.2 °C -16.7 °C 34533.8 hPa NNW 72.6 km/h 72.6 km/h 64 % 0 mm 0.0 W/m2 CLR
00:39 -13.2 °C -16.7 °C 34533.8 hPa NNW 65.5 km/h 65.5 km/h 64 % 0 mm 0.0 W/m2 CLR
01:03 -13.4 °C -16.6 °C 34533.8 hPa NNW 51.8 km/h 51.8 km/h 68 % 0 mm 0.0 W/m2 CLR
01:09 -13.4 °C -16.6 °C 34544 hPa NNW 44.7 km/h 44.7 km/h 68 % 0 mm 0.0 W/m2 CLR
01:15 -13.4 °C -16.3 °C 34554.1 hPa NNW 65.5 km/h 65.5 km/h 70 % 0 mm 0.0 W/m2 CLR
01:31 -14.1 °C -16.3 °C 34554.1 hPa NNW 50.7 km/h 50.7 km/h 76 % 0 mm 0.0 W/m2 CLR
02:05 -14.1 °C -16.3 °C 34544 hPa NW 47.6 km/h 47.6 km/h 76 % 0 mm 0.0 W/m2 CLR
02:07 -14.1 °C -16.3 °C 34554.1 hPa NNW 44.7 km/h 44.7 km/h 76 % 0 mm 0.0 W/m2 CLR
02:08 -14.1 °C -16.3 °C 34554.1 hPa NW 38.8 km/h 38.8 km/h 76 % 0 mm 0.0 W/m2 CLR
02:21 -14.1 °C -16.3 °C 34544 hPa North 35.7 km/h 35.7 km/h 75 % 0 mm 0.0 W/m2 CLR
02:27 -14.1 °C -16.3 °C 34544 hPa NNW 44.7 km/h 44.7 km/h 75 % 0 mm 0.0 W/m2 CLR
02:32 -14.1 °C -16.3 °C 34544 hPa NW 38.8 km/h 38.8 km/h 75 % 0 mm 0.0 W/m2 CLR
02:38 -14.4 °C -16.8 °C 34544 hPa NW 38.8 km/h 38.8 km/h 74 % 0 mm 0.0 W/m2 CLR
02:47 -14.4 °C -16.9 °C 34544 hPa NW 32.8 km/h 32.8 km/h 73 % 0 mm 0.0 W/m2 CLR
03:02 -14.7 °C -17.4 °C 34544 hPa NW 38.8 km/h 38.8 km/h 71 % 0 mm 0.0 W/m2 CLR
03:08 -14.7 °C -17.4 °C 34544 hPa NNW 31.1 km/h 31.1 km/h 71 % 0 mm 0.0 W/m2 CLR
03:25 -15 °C -17.6 °C 34544 hPa NNW 29.8 km/h 29.8 km/h 72 % 0 mm 0.0 W/m2 CLR
03:36 -15 °C -17.4 °C 34533.8 hPa NW 26.9 km/h 26.9 km/h 73 % 0 mm 0.0 W/m2 CLR
03:52 -15.3 °C -17.8 °C 34533.8 hPa NW 25.9 km/h 25.9 km/h 73 % 0 mm 0.0 W/m2 CLR
03:59 -15.3 °C -17.9 °C 34533.8 hPa NW 23.8 km/h 23.8 km/h 72 % 0 mm 0.0 W/m2 CLR
04:05 -15 °C -17.6 °C 34533.8 hPa NW 29.8 km/h 29.8 km/h 72 % 0 mm 0.0 W/m2 CLR
04:12 -15.3 °C -17.9 °C 34533.8 hPa NW 29.8 km/h 29.8 km/h 72 % 0 mm 0.0 W/m2 CLR
04:17 -15 °C -17.7 °C 34533.8 hPa NW 32.8 km/h 32.8 km/h 71 % 0 mm 0.0 W/m2 CLR
04:25 -15 °C -17.8 °C 34520.3 hPa NW 41.7 km/h 41.7 km/h 70 % 0 mm 0.0 W/m2 CLR
04:51 -15 °C -17.7 °C 34533.8 hPa NNW 33.6 km/h 33.6 km/h 71 % 0 mm 0.0 W/m2 CLR
04:58 -15 °C -17.7 °C 34533.8 hPa NW 17.9 km/h 17.9 km/h 71 % 0 mm 0.0 W/m2 CLR
05:09 -15.3 °C -17.9 °C 34533.8 hPa NNW 31.1 km/h 31.1 km/h 71 % 0 mm 0.0 W/m2 CLR
05:18 -15.3 °C -17.9 °C 34520.3 hPa NW 35.7 km/h 35.7 km/h 71 % 0 mm 0.0 W/m2 CLR
05:29 -15.3 °C -17.9 °C 34533.8 hPa NW 38.8 km/h 38.8 km/h 71 % 0 mm 0.0 W/m2 CLR
05:36 -15.3 °C -17.9 °C 34520.3 hPa NW 38.8 km/h 38.8 km/h 71 % 0 mm 0.0 W/m2 CLR
05:42 -15.3 °C -17.9 °C 34520.3 hPa NW 38.8 km/h 38.8 km/h 71 % 0 mm 0.0 W/m2 CLR
05:47 -15.3 °C -18.1 °C 34533.8 hPa NW 38.8 km/h 38.8 km/h 70 % 0 mm 0.0 W/m2 CLR
06:05 -15 °C -17.8 °C 34533.8 hPa NW 29.8 km/h 29.8 km/h 70 % 0 mm 0.0 W/m2 CLR
06:11 -15 °C -17.8 °C 34533.8 hPa NNW 32.8 km/h 32.8 km/h 70 % 0 mm 0.0 W/m2 CLR
06:23 -15 °C -17.7 °C 34533.8 hPa NW 20.9 km/h 20.9 km/h 71 % 0 mm 0.0 W/m2 CLR
06:28 -15 °C -17.7 °C 34533.8 hPa NW 17.9 km/h 17.9 km/h 71 % 0 mm 0.0 W/m2 CLR
06:35 -15.3 °C -17.9 °C 34520.3 hPa NW 17.9 km/h 17.9 km/h 72 % 0 mm 0.0 W/m2 CLR
06:44 -15.3 °C -17.9 °C 34520.3 hPa NW 20.9 km/h 20.9 km/h 71 % 0 mm 0.0 W/m2 CLR
06:52 -15.3 °C -17.9 °C 34520.3 hPa NW 20.9 km/h 20.9 km/h 71 % 0 mm 0.0 W/m2 CLR
07:00 -15.6 °C -18.3 °C 34520.3 hPa NW 15 km/h 15 km/h 71 % 0 mm 0.0 W/m2 CLR
07:12 -16.2 °C -18.8 °C 34533.8 hPa Calm     72 % 0 mm 0.0 W/m2 CLR
07:21 -16.6 °C -19.1 °C 34533.8 hPa Calm     72 % 0 mm 0.0 W/m2 CLR
07:30 -16.8 °C -19.3 °C 34533.8 hPa Calm     72 % 0 mm 0.0 W/m2 CLR
07:36 -16.8 °C -19.3 °C 34533.8 hPa WNW 9 km/h 9 km/h 72 % 0 mm 0.0 W/m2 CLR
07:53 -17.2 °C -19.7 °C 34533.8 hPa WNW 9 km/h 9 km/h 72 % 0 mm 0.0 W/m2 CLR
08:02 -17.2 °C -19.7 °C 34544 hPa NW 23.8 km/h 23.8 km/h 72 % 0 mm 0.0 W/m2 CLR
08:14 -17.4 °C -19.8 °C 34544 hPa NW 20.9 km/h 20.9 km/h 73 % 0 mm 0.0 W/m2 OVC
08:32 -15.9 °C -18.4 °C 34533.8 hPa NW 41.7 km/h 41.7 km/h 72 % 0 mm 9.0 W/m2 BKN
08:52 -15 °C -17.7 °C 34544 hPa NW 33.6 km/h 33.6 km/h 71 % 0 mm 16.0 W/m2 BKN
09:03 -15 °C -17.7 °C 34554.1 hPa NW 29.8 km/h 29.8 km/h 71 % 0 mm 37.0 W/m2 BKN
09:12 -15 °C -17.7 °C 34567.7 hPa NNW 23.8 km/h 23.8 km/h 71 % 0 mm 58.0 W/m2 SCT
09:18 -15 °C -17.6 °C 34567.7 hPa NW 11.9 km/h 11.9 km/h 72 % 0 mm 69.0 W/m2 SCT
09:41 -14.7 °C -17.3 °C 34567.7 hPa NW 23.8 km/h 23.8 km/h 72 % 0 mm 167.0 W/m2 CLR
09:48 -14.4 °C -17 °C 34567.7 hPa NW 29.8 km/h 29.8 km/h 72 % 0 mm 169.0 W/m2 CLR
09:55 -14.4 °C -17 °C 34567.7 hPa NW 35.7 km/h 35.7 km/h 72 % 0 mm 179.0 W/m2 CLR
10:01 -14.4 °C -17 °C 34567.7 hPa NNW 50.7 km/h 50.7 km/h 72 % 0 mm 199.0 W/m2 CLR
10:13 -14.1 °C -16.7 °C 34577.8 hPa North 38.8 km/h 38.8 km/h 72 % 0 mm 234.0 W/m2 CLR
10:19 -14.1 °C -16.8 °C 34577.8 hPa NNW 35.7 km/h 35.7 km/h 71 % 0 mm 253.0 W/m2 CLR
10:36 -14.1 °C -16.8 °C 34577.8 hPa NNW 38.8 km/h 38.8 km/h 71 % 0 mm 322.0 W/m2 CLR
10:43 -13.8 °C -16.5 °C 34591.4 hPa NNE 31.1 km/h 32.2 km/h 71 % 0 mm 316.0 W/m2 CLR
11:19 -13.4 °C -16.3 °C 34591.4 hPa North 44.7 km/h 44.7 km/h 70 % 0 mm 362.0 W/m2 CLR
11:34 -13.2 °C -16 °C 34591.4 hPa NW 41.7 km/h 41.7 km/h 70 % 0 mm 388.0 W/m2 CLR
11:55 -12.8 °C -15.9 °C 34591.4 hPa NNW 46.7 km/h 46.7 km/h 68 % 0 mm 130.0 W/m2 CLR
12:16 -12.8 °C -16.2 °C 34591.4 hPa NNW 68.6 km/h 68.6 km/h 66 % 0 mm 153.0 W/m2 CLR
12:39 -12.8 °C -16.2 °C 34577.8 hPa NNW 53.6 km/h 53.6 km/h 66 % 0 mm 352.0 W/m2 CLR
12:45 -12.8 °C -16.3 °C 34577.8 hPa NNW 59.5 km/h 59.5 km/h 65 % 0 mm 209.0 W/m2 CLR
13:03 -12.6 °C -16.2 °C 34577.8 hPa North 51.8 km/h 51.8 km/h 64 % 0 mm 239.0 W/m2 CLR
13:13 -12.6 °C -16.2 °C 34567.7 hPa North 64.7 km/h 64.7 km/h 64 % 0 mm 443.0 W/m2 CLR
13:21 -12.6 °C -16 °C 34567.7 hPa NNW 50.7 km/h 50.7 km/h 65 % 0 mm 178.0 W/m2 CLR
13:30 -12.6 °C -16 °C 34567.7 hPa NNW 44.7 km/h 44.7 km/h 65 % 0 mm 399.0 W/m2 CLR
13:42 -12.6 °C -16.6 °C 34567.7 hPa NNW 77.4 km/h 77.4 km/h 60 % 0 mm 536.0 W/m2 CLR
13:51 -11.9 °C -16.1 °C 34567.7 hPa North 65.5 km/h 65.5 km/h 60 % 0 mm 489.0 W/m2 CLR
14:03 -11.9 °C -16.2 °C 34567.7 hPa North 80.5 km/h 80.5 km/h 59 % 0 mm 446.0 W/m2 CLR
14:18 -11.9 °C -16.2 °C 34554.1 hPa North 74.5 km/h 74.5 km/h 59 % 0 mm 436.0 W/m2 CLR
14:24 -11.9 °C -16.2 °C 34554.1 hPa NNW 41.7 km/h 41.7 km/h 59 % 0 mm 313.0 W/m2 CLR
14:30 -11.9 °C -16.2 °C 34554.1 hPa NNE 47.6 km/h 47.6 km/h 59 % 0 mm 446.0 W/m2 CLR
14:38 -12.2 °C -16.7 °C 34567.7 hPa North 68.6 km/h 68.6 km/h 57 % 0 mm 148.0 W/m2 CLR
14:52 -12.2 °C -16.5 °C 34567.7 hPa NW 53.6 km/h 53.6 km/h 59 % 0 mm 404.0 W/m2 CLR
14:59 -12.2 °C -16.5 °C 34567.7 hPa NNW 68.6 km/h 68.6 km/h 59 % 0 mm 44.0 W/m2 FEW
15:07 -12.6 °C -16.8 °C 34577.8 hPa NNW 68.6 km/h 68.6 km/h 59 % 0 mm 44.0 W/m2 SCT
15:13 -12.6 °C -16.6 °C 34577.8 hPa North 53.6 km/h 53.6 km/h 60 % 0 mm 148.0 W/m2 FEW
15:56 -11.9 °C -16.7 °C 34577.8 hPa North 62.6 km/h 62.6 km/h 55 % 0 mm 149.0 W/m2 CLR
16:03 -12.2 °C -16.7 °C 34577.8 hPa North 59.5 km/h 59.5 km/h 57 % 0 mm 250.0 W/m2 CLR
16:09 -12.2 °C -16.9 °C 34591.4 hPa North 77.4 km/h 77.4 km/h 56 % 0 mm 86.0 W/m2 CLR
16:23 -12.6 °C -17.1 °C 34591.4 hPa NW 80.5 km/h 80.5 km/h 57 % 0 mm 186.0 W/m2 CLR
16:49 -12.8 °C -16.9 °C 34577.8 hPa NW 56.6 km/h 56.6 km/h 60 % 0 mm 49.0 W/m2 FEW
17:00 -12.8 °C -16.7 °C 34591.4 hPa NW 74.5 km/h 74.5 km/h 62 % 0 mm 47.0 W/m2 SCT
17:01 -12.8 °C -16.7 °C 34577.8 hPa NW 59.5 km/h 59.5 km/h 62 % 0 mm 47.0 W/m2 SCT
17:07 -12.8 °C -16.7 °C 34591.4 hPa North 68.6 km/h 68.6 km/h 62 % 0 mm 40.0 W/m2 BKN
17:15 -12.8 °C -16.6 °C 34591.4 hPa North 69.8 km/h 69.8 km/h 63 % 0 mm 32.0 W/m2 BKN
17:20 -12.8 °C -16.6 °C 34591.4 hPa NNW 68.6 km/h 68.6 km/h 63 % 0 mm 30.0 W/m2 BKN
17:35 -13.2 °C -17 °C 34601.5 hPa NNW 89.3 km/h 89.3 km/h 62 % 0 mm 16.0 W/m2 BKN
17:52 -13.2 °C -16.8 °C 34611.7 hPa NNW 77.4 km/h 77.4 km/h 63 % 0 mm 5.0 W/m2 OVC
18:07 -13.4 °C -16.9 °C 34601.5 hPa North 53.6 km/h 53.6 km/h 65 % 0 mm 0.0 W/m2 CLR
18:16 -13.4 °C -16.6 °C 34611.7 hPa NW 29.8 km/h 29.8 km/h 67 % 0 mm 0.0 W/m2 CLR
18:37 -13.8 °C -16.9 °C 34625.2 hPa NW 33.6 km/h 33.6 km/h 67 % 0 mm 0.0 W/m2 CLR
18:47 -13.8 °C -16.9 °C 34625.2 hPa NW 29.8 km/h 29.8 km/h 67 % 0 mm 0.0 W/m2 CLR
18:59 -13.8 °C -16.9 °C 34625.2 hPa NW 33.6 km/h 33.6 km/h 67 % 0 mm 0.0 W/m2 CLR
19:07 -14.1 °C -17.1 °C 34635.4 hPa North 38.8 km/h 44.1 km/h 68 % 0 mm 0.0 W/m2 CLR
19:19 -13.8 °C -16.8 °C 34635.4 hPa NW 38.8 km/h 38.8 km/h 68 % 0 mm 0.0 W/m2 CLR
19:41 -14.1 °C -17 °C 34645.6 hPa NW 65.5 km/h 65.5 km/h 69 % 0 mm 0.0 W/m2 CLR
20:13 -14.1 °C -16.8 °C 34659.1 hPa NNW 51.8 km/h 51.8 km/h 71 % 0 mm 0.0 W/m2 CLR
20:26 -14.1 °C -16.8 °C 34669.3 hPa NNW 50.7 km/h 50.7 km/h 71 % 0 mm 0.0 W/m2 CLR
20:36 -14.1 °C -16.7 °C 34682.8 hPa NNW 56.6 km/h 56.6 km/h 72 % 0 mm 0.0 W/m2 CLR
20:49 -14.1 °C -16.5 °C 34682.8 hPa NNW 44.7 km/h 44.7 km/h 74 % 0 mm 0.0 W/m2 CLR
20:55 -14.4 °C -16.7 °C 34682.8 hPa North 41.7 km/h 41.7 km/h 75 % 0 mm 0.0 W/m2 CLR
21:10 -14.4 °C -16.6 °C 34669.3 hPa North 41.7 km/h 41.7 km/h 76 % 0 mm 0.0 W/m2 CLR
21:25 -14.4 °C -16.6 °C 34682.8 hPa NW 35.7 km/h 35.7 km/h 76 % 0 mm 0.0 W/m2 CLR
21:32 -14.4 °C -16.6 °C 34682.8 hPa NW 47.6 km/h 47.6 km/h 76 % 0 mm 0.0 W/m2 CLR
21:41 -14.4 °C -16.6 °C 34682.8 hPa NNW 47.6 km/h 47.6 km/h 76 % 0 mm 0.0 W/m2 CLR
21:56 -14.4 °C -16.4 °C 34693 hPa WNW 50.7 km/h 50.7 km/h 77 % 0 mm 0.0 W/m2 CLR
22:05 -14.4 °C -16.3 °C 34693 hPa NW 56.6 km/h 56.6 km/h 78 % 0 mm 0.0 W/m2 CLR
22:12 -14.4 °C -16.3 °C 34693 hPa NNW 56.6 km/h 56.6 km/h 78 % 0 mm 0.0 W/m2 CLR
22:36 -14.4 °C -16.3 °C 34693 hPa NNW 59.5 km/h 59.5 km/h 78 % 0 mm 0.0 W/m2 CLR
22:43 -14.7 °C -16.7 °C 34693 hPa NW 53.6 km/h 53.6 km/h 78 % 0 mm 0.0 W/m2 CLR
22:56 -14.7 °C -16.7 °C 34682.8 hPa NW 41.7 km/h 41.7 km/h 78 % 0 mm 0.0 W/m2 CLR
23:02 -14.7 °C -16.7 °C 34693 hPa WNW 26.9 km/h 26.9 km/h 78 % 0 mm 0.0 W/m2 CLR
23:03 -14.7 °C -16.7 °C 34682.8 hPa WNW 26.9 km/h 26.9 km/h 78 % 0 mm 0.0 W/m2 CLR
23:13 -14.7 °C -16.8 °C 34703.1 hPa NW 15 km/h 15 km/h 77 % 0 mm 0.0 W/m2 CLR
23:33 -14.4 °C -16.6 °C 34703.1 hPa WNW 36.2 km/h 36.2 km/h 76 % 0 mm 0.0 W/m2 CLR
23:44 -14.4 °C -16.6 °C 34703.1 hPa NW 29.8 km/h 29.8 km/h 76 % 0 mm 0.0 W/m2 CLR
23:52 -14.4 °C -16.6 °C 34703.1 hPa NNW 26.9 km/h 26.9 km/h 76 % 0 mm 0.0 W/m2 CLR
Lo Temps de Massalio
Compliments of Weather Underground - 768 kb